Main page
METAR-TAF:

METAR-TAF

Airports :

Piedras Negras International Airport

Piedras Negras, Mexico

latitude: 28-42N, longitude: 100-31W, elevation: 820 ft

Current weather observation

The report was made 40 minutes ago, at 17:40 UTC
Wind 12 mph from the South/Southeast
Temperature 57°F
Humidity 19%
Pressure 30.43 in. Hg
Visibility: 10 miles
Clear sky

METAR: MMPG 271740Z 15010KT 10SM SKC 14/M09 A3043 RMK

Time: 12:20 (18:20 UTC)

Forecast

The report was made 1 hour and 5 minutes ago, at 17:15 UTC
Forecast valid from 27 at 18 UTC to 28 at 18 UTC
Wind 17 mph from the South/Southeast
Visibility: 6 miles
Clear sky
Becoming
from 28 at 02 UTC to 28 at 03 UTC
Wind 0 mph from the North
From 28 at 1500 UTC
Wind 12 mph from the Southeast
Visibility: 6 miles
Clear sky

TAF: MMPG 271715Z 2718/2818 16015KT P6SM SKC BECMG 2802/2803 00000KT FM281500 14010KT P6SM SKC

Weather observations and forecasts of more than 4000 airports (METAR and TAF reports).

The available stations are represented by yellow and red dots on the map.

Hover mouse over dot to see the name of the station.

Then click to see weather observations and forecasts.

To change the map : click on the green buttons with a black cross to zoom in, on the green button with a dash to zoom out, or on the green arrows for adjacent maps.


METAR-TAF: